Time;durP1;ratioP1;P1;durP2;ratioP2;P2;SDS_P1;SDS_P2;PMS_P1;PMS_P2;Temp;Humidity;BMP_temperature;BMP_pressure;BME280_temperature;BME280_humidity;BME280_pressure;Samples;Min_cycle;Max_cycle;Signal;HPM_P1;HPM_P2
2022/07/09 00:00:12;;;;;;;3.05;1.55;;;;;;;18.92;53.27;100323.03;4318540;33;33866;-79
2022/07/09 00:02:40;;;;;;;3.60;1.50;;;;;;;18.88;53.21;100319.22;4318340;33;33576;-79
2022/07/09 00:05:08;;;;;;;5.32;1.60;;;;;;;18.96;53.20;100323.25;4317931;33;33620;-77
2022/07/09 00:07:43;;;;;;;2.90;1.95;;;;;;;19.20;52.69;100326.03;4317609;33;34319;-80
2022/07/09 00:10:11;;;;;;;3.37;1.67;;;;;;;19.30;52.30;100334.19;4317622;33;34183;-77
2022/07/09 00:12:39;;;;;;;3.22;1.50;;;;;;;19.40;52.03;100331.31;4318814;33;34014;-83
2022/07/09 00:15:07;;;;;;;1.50;1.40;;;;;;;19.66;51.49;100337.31;4317597;33;33918;-78
2022/07/09 00:17:34;;;;;;;2.87;1.50;;;;;;;19.72;51.17;100334.50;4318677;33;35109;-77
2022/07/09 00:20:04;;;;;;;2.67;1.45;;;;;;;19.57;51.63;100333.59;4317637;33;33905;-77
2022/07/09 00:22:32;;;;;;;1.62;1.52;;;;;;;20.05;50.16;100343.72;4317866;33;33788;-78
2022/07/09 00:25:19;;;;;;;3.17;1.45;;;;;;;19.46;51.81;100332.06;4318885;33;33997;-78
2022/07/09 00:27:46;;;;;;;2.72;1.50;;;;;;;19.49;51.86;100333.41;4319034;33;34223;-82
2022/07/09 00:30:14;;;;;;;3.37;1.70;;;;;;;19.35;51.83;100336.88;4317867;33;34809;-78
2022/07/09 00:32:41;;;;;;;2.12;1.50;;;;;;;19.39;52.03;100332.41;4318059;33;35214;-78
2022/07/09 00:35:09;;;;;;;3.42;1.60;;;;;;;19.55;51.66;100333.06;4319183;33;34873;-77
2022/07/09 00:37:36;;;;;;;2.83;1.58;;;;;;;19.36;51.72;100330.25;4318634;33;35079;-81
2022/07/09 00:40:04;;;;;;;2.72;1.60;;;;;;;19.51;51.32;100334.75;4317653;33;34242;-83
2022/07/09 00:42:32;;;;;;;2.55;1.35;;;;;;;19.83;50.33;100328.59;4318863;33;33515;-80
2022/07/09 00:45:00;;;;;;;3.95;1.52;;;;;;;19.31;51.50;100326.72;4317903;33;34573;-77
2022/07/09 00:47:27;;;;;;;2.50;1.40;;;;;;;19.31;51.70;100322.06;4318872;33;35061;-79
2022/07/09 00:49:55;;;;;;;5.50;1.58;;;;;;;19.38;51.41;100336.28;4318535;33;34269;-77
2022/07/09 00:52:22;;;;;;;3.95;1.48;;;;;;;19.42;51.42;100328.28;4318558;33;33629;-77
2022/07/09 00:54:50;;;;;;;4.28;1.58;;;;;;;19.31;51.65;100323.97;4317295;33;33276;-78
2022/07/09 00:57:19;;;;;;;1.90;1.52;;;;;;;19.34;51.50;100324.22;4317629;33;33979;-77
2022/07/09 00:59:47;;;;;;;2.58;1.48;;;;;;;19.22;51.76;100323.81;4317114;33;34938;-80
2022/07/09 01:02:15;;;;;;;4.57;1.73;;;;;;;19.18;51.93;100322.75;4317445;33;34442;-85
2022/07/09 01:04:43;;;;;;;2.10;1.42;;;;;;;19.00;52.59;100329.81;4316816;33;34030;-78
2022/07/09 01:07:10;;;;;;;3.45;1.70;;;;;;;18.93;52.50;100326.59;4316913;33;33159;-76
2022/07/09 01:09:38;;;;;;;2.28;1.50;;;;;;;18.98;52.50;100318.28;4318321;33;34458;-75
2022/07/09 01:12:07;;;;;;;2.03;1.60;;;;;;;19.19;51.92;100313.41;4317556;33;33593;-81
2022/07/09 01:14:34;;;;;;;2.62;1.50;;;;;;;18.86;52.81;100318.72;4316993;33;33689;-76
2022/07/09 01:17:04;;;;;;;2.55;1.30;;;;;;;19.21;51.85;100314.75;4318954;33;34191;-76
2022/07/09 01:19:33;;;;;;;2.62;1.37;;;;;;;19.21;51.82;100316.69;4318031;33;35107;-77
2022/07/09 01:22:00;;;;;;;2.45;1.70;;;;;;;18.61;53.69;100317.78;4317490;33;33775;-76
2022/07/09 01:24:34;;;;;;;2.05;1.30;;;;;;;18.64;53.51;100314.47;4318547;33;33972;-74
2022/07/09 01:27:02;;;;;;;4.20;1.87;;;;;;;18.58;53.67;100309.31;4318258;33;34026;-74
2022/07/09 01:29:29;;;;;;;4.15;1.65;;;;;;;18.81;52.90;100307.75;4316973;33;34184;-74
2022/07/09 01:31:57;;;;;;;2.08;1.60;;;;;;;18.73;53.01;100298.19;4317180;33;33779;-74
2022/07/09 01:34:25;;;;;;;3.22;1.60;;;;;;;18.72;53.01;100296.53;4317050;33;34192;-74
2022/07/09 01:36:52;;;;;;;2.70;1.33;;;;;;;18.47;53.80;100294.84;4317011;33;34329;-76
2022/07/09 01:39:20;;;;;;;3.10;1.40;;;;;;;18.61;53.31;100286.75;4318463;33;34939;-81
2022/07/09 01:41:47;;;;;;;3.45;1.73;;;;;;;18.50;53.81;100294.25;4318197;33;33795;-74
2022/07/09 01:44:14;;;;;;;3.05;1.60;;;;;;;18.39;54.00;100287.22;4318278;33;34038;-75
2022/07/09 01:46:42;;;;;;;2.87;1.65;;;;;;;18.44;54.02;100295.41;4318133;33;35074;-75
2022/07/09 01:49:10;;;;;;;2.03;1.37;;;;;;;17.89;55.50;100292.00;4317994;33;34241;-82
2022/07/09 01:51:37;;;;;;;2.08;1.27;;;;;;;18.01;54.92;100289.69;4317913;33;33791;-76
2022/07/09 01:54:05;;;;;;;3.65;1.77;;;;;;;18.16;54.61;100286.88;4317811;33;34778;-74
2022/07/09 01:56:33;;;;;;;4.00;1.55;;;;;;;17.64;56.08;100288.25;4317546;33;34251;-75
2022/07/09 01:59:01;;;;;;;1.30;1.20;;;;;;;17.86;55.83;100293.38;4318014;33;34866;-80
2022/07/09 02:01:28;;;;;;;4.70;1.52;;;;;;;17.78;55.91;100294.75;4316895;33;34384;-77
2022/07/09 02:03:56;;;;;;;2.15;1.58;;;;;;;17.23;57.57;100291.16;4316461;33;33889;-75
2022/07/09 02:06:24;;;;;;;2.17;1.52;;;;;;;17.34;57.15;100281.81;4317777;33;35129;-75
2022/07/09 02:08:52;;;;;;;2.08;1.70;;;;;;;17.83;55.57;100285.69;4318081;33;33990;-76
2022/07/09 02:11:20;;;;;;;1.65;1.50;;;;;;;17.94;55.29;100286.47;4317526;33;33612;-77
2022/07/09 02:13:47;;;;;;;2.53;1.60;;;;;;;17.39;56.82;100295.50;4317880;33;35030;-74
2022/07/09 02:16:15;;;;;;;2.37;1.50;;;;;;;17.00;58.57;100290.69;4318141;33;34274;-75
2022/07/09 02:18:43;;;;;;;2.62;1.50;;;;;;;17.23;57.89;100288.44;4317373;33;34902;-75
2022/07/09 02:21:11;;;;;;;2.25;1.50;;;;;;;17.87;55.79;100286.78;4317397;33;33602;-74
2022/07/09 02:23:38;;;;;;;2.10;1.52;;;;;;;17.45;56.87;100284.50;4317823;33;34121;-74
2022/07/09 02:26:06;;;;;;;3.15;2.05;;;;;;;17.65;56.43;100289.09;4315675;33;34108;-74
2022/07/09 02:28:34;;;;;;;5.57;1.70;;;;;;;18.20;54.79;100281.59;4317693;33;33646;-79
2022/07/09 02:31:02;;;;;;;2.00;1.62;;;;;;;17.89;55.55;100287.31;4317771;33;34398;-75
2022/07/09 02:33:31;;;;;;;2.47;1.60;;;;;;;17.45;57.03;100290.81;4317243;33;33685;-74
2022/07/09 02:35:58;;;;;;;3.28;1.62;;;;;;;17.50;56.73;100289.97;4317759;33;34292;-74
2022/07/09 02:38:26;;;;;;;3.03;1.60;;;;;;;17.56;56.72;100295.16;4316520;33;34175;-75
2022/07/09 02:40:53;;;;;;;3.53;1.80;;;;;;;17.62;56.70;100298.69;4316979;33;33296;-74
2022/07/09 02:43:21;;;;;;;3.08;1.80;;;;;;;17.49;57.04;100285.56;4317663;33;34039;-74
2022/07/09 02:45:51;;;;;;;4.82;1.55;;;;;;;17.86;55.90;100293.38;4316373;33;34965;-72
2022/07/09 02:48:19;;;;;;;2.53;1.80;;;;;;;18.01;55.43;100293.28;4316836;33;34997;-78
2022/07/09 02:50:46;;;;;;;3.58;2.05;;;;;;;17.74;56.08;100281.88;4317386;33;33820;-75
2022/07/09 02:53:13;;;;;;;3.53;1.70;;;;;;;17.78;56.13;100283.78;4316847;33;33558;-75
2022/07/09 02:55:41;;;;;;;2.30;1.52;;;;;;;17.82;56.08;100281.31;4317167;33;34281;-73
2022/07/09 02:58:09;;;;;;;1.58;1.20;;;;;;;17.64;56.78;100280.00;4316208;33;34148;-74
2022/07/09 03:00:39;;;;;;;1.80;1.40;;;;;;;17.88;56.04;100284.84;4316920;33;33676;-74
2022/07/09 03:03:08;;;;;;;1.50;1.40;;;;;;;17.40;57.59;100283.41;4318010;33;34855;-72
2022/07/09 03:05:35;;;;;;;2.67;1.80;;;;;;;17.48;57.45;100279.28;4317986;33;34366;-80
2022/07/09 03:08:03;;;;;;;2.78;1.50;;;;;;;17.48;57.36;100284.75;4319241;33;33919;-81
2022/07/09 03:10:31;;;;;;;3.12;1.60;;;;;;;17.80;56.49;100278.81;4319175;33;34520;-75
2022/07/09 03:12:58;;;;;;;1.70;1.37;;;;;;;17.85;56.15;100274.44;4319472;33;33933;-80
2022/07/09 03:15:26;;;;;;;1.80;1.30;;;;;;;17.62;56.92;100279.47;4319006;33;34251;-77
2022/07/09 03:17:54;;;;;;;1.75;1.17;;;;;;;17.78;56.58;100278.28;4317672;33;34935;-80
2022/07/09 03:20:21;;;;;;;3.03;1.70;;;;;;;17.43;57.63;100277.37;4317874;33;32713;-74
2022/07/09 03:22:49;;;;;;;1.73;1.33;;;;;;;18.06;56.10;100286.12;4318897;33;34643;-75
2022/07/09 03:25:16;;;;;;;2.92;1.55;;;;;;;18.16;55.60;100283.28;4319413;33;34234;-73
2022/07/09 03:27:44;;;;;;;2.47;1.85;;;;;;;17.83;57.06;100292.00;4318166;33;35021;-81
2022/07/09 03:30:12;;;;;;;2.40;1.67;;;;;;;18.31;55.22;100287.81;4318613;33;33811;-79
2022/07/09 03:32:40;;;;;;;2.00;1.62;;;;;;;18.30;55.63;100283.47;4319168;33;34868;-73
2022/07/09 03:35:07;;;;;;;3.15;1.50;;;;;;;18.48;55.00;100279.19;4319146;33;34327;-74
2022/07/09 03:37:35;;;;;;;2.62;1.40;;;;;;;18.59;54.62;100289.78;4319122;33;34259;-73
2022/07/09 03:40:04;;;;;;;2.60;1.52;;;;;;;18.49;54.71;100284.37;4319266;33;33836;-78
2022/07/09 03:42:32;;;;;;;1.98;1.60;;;;;;;18.33;55.19;100285.63;4319073;33;34046;-74
2022/07/09 03:44:59;;;;;;;1.60;1.50;;;;;;;18.40;55.08;100292.44;4318503;33;35089;-76
2022/07/09 03:47:27;;;;;;;1.83;1.50;;;;;;;18.24;55.91;100294.47;4317974;33;34263;-75
2022/07/09 03:49:54;;;;;;;2.80;1.60;;;;;;;18.06;56.39;100294.34;4319439;33;33774;-74
2022/07/09 03:52:21;;;;;;;2.37;1.67;;;;;;;18.23;55.80;100303.81;4318909;33;33975;-74
2022/07/09 03:54:49;;;;;;;2.45;1.67;;;;;;;18.40;55.25;100291.59;4319112;33;35091;-79
2022/07/09 03:57:17;;;;;;;3.33;1.50;;;;;;;18.06;56.32;100297.09;4319027;33;34187;-73
2022/07/09 03:59:44;;;;;;;2.78;1.80;;;;;;;18.20;55.82;100298.88;4317212;33;33930;-76
2022/07/09 04:02:12;;;;;;;2.55;1.70;;;;;;;18.30;55.25;100297.19;4318700;33;34544;-77
2022/07/09 04:04:40;;;;;;;2.42;1.70;;;;;;;18.27;55.45;100295.00;4318998;33;35034;-74
2022/07/09 04:07:08;;;;;;;2.35;1.75;;;;;;;18.24;55.61;100297.22;4319156;33;34116;-76
2022/07/09 04:09:36;;;;;;;3.70;1.50;;;;;;;18.16;56.30;100299.75;4319255;33;33593;-77
2022/07/09 04:12:03;;;;;;;2.37;1.70;;;;;;;18.07;56.28;100304.22;4310121;33;34144;-73
2022/07/09 04:14:31;;;;;;;1.98;1.77;;;;;;;17.81;57.31;100307.91;4310865;33;34548;-73
2022/07/09 04:16:58;;;;;;;2.70;1.90;;;;;;;18.07;56.66;100315.19;4310391;33;34132;-72
2022/07/09 04:19:26;;;;;;;2.33;1.70;;;;;;;17.95;57.14;100316.38;4309693;33;33724;-71
2022/07/09 04:21:53;;;;;;;3.37;2.12;;;;;;;18.33;55.44;100311.16;4312811;33;33698;-70
2022/07/09 04:24:21;;;;;;;2.78;1.80;;;;;;;18.07;56.68;100312.47;4310743;33;34088;-70
2022/07/09 04:26:48;;;;;;;3.25;1.65;;;;;;;17.74;57.49;100306.59;4310658;33;34198;-70
2022/07/09 04:29:16;;;;;;;3.00;2.00;;;;;;;18.20;56.24;100309.88;4309228;33;32554;-74
2022/07/09 04:31:43;;;;;;;2.87;1.62;;;;;;;18.57;55.27;100311.22;4313364;33;33816;-69
2022/07/09 04:34:11;;;;;;;2.95;1.80;;;;;;;18.98;54.67;100318.28;4309345;33;34308;-69
2022/07/09 04:36:38;;;;;;;3.12;1.80;;;;;;;19.17;54.17;100304.63;4309414;33;33740;-72
2022/07/09 04:39:06;;;;;;;2.25;1.52;;;;;;;19.48;54.23;100307.81;4310781;33;33456;-73
2022/07/09 04:41:34;;;;;;;4.65;1.75;;;;;;;19.72;52.09;100315.25;4306609;33;33591;-70
2022/07/09 04:44:01;;;;;;;2.90;1.80;;;;;;;20.06;50.79;100306.78;4316717;33;35021;-71
2022/07/09 04:46:30;;;;;;;2.25;1.65;;;;;;;19.84;51.06;100310.12;4317522;33;34236;-74
2022/07/09 04:48:58;;;;;;;1.70;1.45;;;;;;;19.58;51.70;100313.19;4318338;33;33722;-71
2022/07/09 04:51:25;;;;;;;2.42;1.70;;;;;;;19.57;51.54;100314.31;4315598;33;33320;-69
2022/07/09 04:53:53;;;;;;;2.37;1.50;;;;;;;19.42;51.95;100312.56;4318762;33;33950;-67
2022/07/09 04:56:21;;;;;;;1.92;1.62;;;;;;;19.05;53.14;100308.59;4318382;33;33923;-70
2022/07/09 04:58:54;;;;;;;2.00;1.40;;;;;;;19.52;52.07;100308.84;4318800;33;34641;-70
2022/07/09 05:01:22;;;;;;;3.10;1.70;;;;;;;18.84;53.61;100308.00;4318392;33;33874;-70
2022/07/09 05:03:50;;;;;;;2.03;1.58;;;;;;;18.89;53.49;100304.38;4317326;33;35077;-70
2022/07/09 05:06:18;;;;;;;2.17;1.62;;;;;;;18.92;53.22;100305.69;4318541;33;34246;-70
2022/07/09 05:08:47;;;;;;;2.15;1.50;;;;;;;19.04;53.24;100306.13;4317459;33;33676;-70
2022/07/09 05:11:14;;;;;;;1.70;1.52;;;;;;;19.13;52.89;100306.31;4317377;33;34740;-70
2022/07/09 05:13:46;;;;;;;2.00;1.65;;;;;;;18.85;53.77;100308.81;4318579;33;34270;-70
2022/07/09 05:16:14;;;;;;;3.10;1.70;;;;;;;18.92;53.77;100314.81;4305570;33;34298;-70
2022/07/09 05:18:42;;;;;;;3.08;1.50;;;;;;;18.59;54.48;100309.00;4318380;33;33640;-70
2022/07/09 05:21:09;;;;;;;2.65;1.85;;;;;;;19.00;53.65;100303.12;4318447;33;34038;-71
2022/07/09 05:23:37;;;;;;;2.67;1.87;;;;;;;19.38;52.93;100307.97;4318533;33;34175;-68
2022/07/09 05:26:05;;;;;;;2.90;1.98;;;;;;;19.50;53.17;100302.03;4316049;33;34041;-68
2022/07/09 05:28:32;;;;;;;1.95;1.67;;;;;;;20.24;51.51;100310.66;4318399;33;33375;-68
2022/07/09 05:31:00;;;;;;;3.40;1.73;;;;;;;20.47;49.92;100306.13;4318489;33;34957;-69
2022/07/09 05:33:48;;;;;;;2.20;1.80;;;;;;;20.86;48.58;100308.50;4318346;33;34998;-71
2022/07/09 05:36:17;;;;;;;3.22;1.70;;;;;;;21.11;48.46;100314.66;4318301;33;34144;-67
2022/07/09 05:38:47;;;;;;;5.45;1.60;;;;;;;21.27;47.97;100310.50;4316897;33;34329;-67
2022/07/09 05:41:15;;;;;;;1.75;1.40;;;;;;;21.31;47.56;100305.97;4318327;33;34803;-68
2022/07/09 05:43:43;;;;;;;1.77;1.40;;;;;;;21.49;46.34;100307.03;4317951;33;33756;-67
2022/07/09 05:46:10;;;;;;;2.72;1.70;;;;;;;21.54;47.05;100310.81;4318286;33;34390;-71
2022/07/09 05:48:38;;;;;;;1.95;1.37;;;;;;;21.74;46.30;100315.06;4320996;33;33649;-68
2022/07/09 05:51:06;;;;;;;2.78;1.55;;;;;;;21.51;46.93;100309.47;4329842;33;33769;-68
2022/07/09 05:53:33;;;;;;;1.73;1.40;;;;;;;21.48;47.59;100305.37;4318595;33;35101;-68
2022/07/09 05:56:00;;;;;;;1.77;1.40;;;;;;;21.99;46.13;100303.44;4317978;33;34932;-67
2022/07/09 05:58:28;;;;;;;3.10;1.70;;;;;;;21.95;46.03;100307.16;4316167;33;33849;-67
2022/07/09 06:00:56;;;;;;;2.25;1.60;;;;;;;22.01;46.38;100303.12;4317404;33;33997;-66
2022/07/09 06:03:24;;;;;;;5.57;1.73;;;;;;;21.66;47.15;100311.06;4317058;33;35002;-66
2022/07/09 06:05:51;;;;;;;3.12;1.80;;;;;;;21.94;46.47;100311.03;4316417;33;34232;-67
2022/07/09 06:08:18;;;;;;;2.20;1.83;;;;;;;22.43;44.38;100301.84;4317814;33;33737;-66
2022/07/09 06:10:46;;;;;;;2.45;1.67;;;;;;;22.72;44.99;100306.09;4317856;33;34806;-67
2022/07/09 06:13:14;;;;;;;3.42;1.73;;;;;;;22.88;44.29;100301.00;4317230;33;33979;-67
2022/07/09 06:15:41;;;;;;;1.92;1.55;;;;;;;22.95;43.11;100309.62;4305599;33;35483;-67
2022/07/09 06:18:09;;;;;;;4.37;1.80;;;;;;;22.72;44.41;100308.84;4301955;33;33193;-68
2022/07/09 06:20:37;;;;;;;2.30;1.58;;;;;;;22.67;43.97;100298.75;4301659;33;33827;-66
2022/07/09 06:23:06;;;;;;;2.40;1.58;;;;;;;23.30;43.15;100313.41;4315232;33;34341;-69
2022/07/09 06:25:34;;;;;;;1.83;1.42;;;;;;;23.17;43.39;100306.00;4316268;33;34456;-68
2022/07/09 06:28:02;;;;;;;2.42;1.60;;;;;;;23.05;42.71;100309.41;4316066;33;33204;-69
2022/07/09 06:30:29;;;;;;;2.40;1.80;;;;;;;22.56;44.07;100313.16;4316451;33;34050;-69
2022/07/09 06:32:57;;;;;;;4.20;1.87;;;;;;;23.23;42.59;100303.94;4315609;33;33505;-67
2022/07/09 06:35:24;;;;;;;1.50;1.30;;;;;;;23.81;41.54;100302.78;4316141;33;34542;-69
2022/07/09 06:37:52;;;;;;;2.40;1.50;;;;;;;23.82;41.18;100304.41;4315584;33;34651;-68
2022/07/09 06:40:19;;;;;;;2.08;1.50;;;;;;;23.20;42.57;100308.16;4317963;33;34070;-67
2022/07/09 06:42:47;;;;;;;2.65;1.67;;;;;;;23.28;42.33;100310.16;4318070;33;34014;-67
2022/07/09 06:45:17;;;;;;;2.40;1.48;;;;;;;24.06;40.83;100306.72;4316692;33;34738;-69
2022/07/09 06:47:44;;;;;;;2.00;1.48;;;;;;;24.39;40.15;100306.22;4317333;33;34356;-68
2022/07/09 06:50:12;;;;;;;2.03;1.50;;;;;;;24.47;40.06;100310.09;4316852;33;34551;-68
2022/07/09 06:52:39;;;;;;;2.97;1.70;;;;;;;24.25;39.80;100308.34;4317890;33;35964;-69
2022/07/09 06:55:07;;;;;;;3.53;1.60;;;;;;;24.58;39.85;100303.12;4318316;33;33679;-68
2022/07/09 06:57:35;;;;;;;2.28;1.50;;;;;;;24.66;40.04;100307.00;4318077;33;33122;-70
2022/07/09 07:00:06;;;;;;;1.50;1.40;;;;;;;24.29;40.81;100310.12;4318295;33;33903;-66
2022/07/09 07:02:34;;;;;;;3.05;1.60;;;;;;;24.81;40.69;100316.75;4317339;33;34238;-67
2022/07/09 07:05:02;;;;;;;2.37;1.58;;;;;;;24.32;41.19;100309.50;4304474;33;34118;-68
2022/07/09 07:07:29;;;;;;;2.70;1.70;;;;;;;24.35;41.01;100297.72;4318010;33;33596;-70
2022/07/09 07:09:57;;;;;;;1.52;1.40;;;;;;;25.01;39.48;100302.19;4318043;33;34772;-70
2022/07/09 07:12:25;;;;;;;2.75;1.62;;;;;;;25.20;39.03;100314.84;4317880;33;33902;-68
2022/07/09 07:14:52;;;;;;;2.40;1.40;;;;;;;25.43;38.11;100305.09;4305059;33;34312;-68
2022/07/09 07:17:20;;;;;;;2.67;1.70;;;;;;;24.95;39.26;100307.09;4315803;33;34585;-67
2022/07/09 07:19:47;;;;;;;2.17;1.50;;;;;;;25.24;37.98;100299.16;4317895;33;34694;-68
2022/07/09 07:22:15;;;;;;;2.53;1.67;;;;;;;25.15;39.66;100302.75;4318081;33;34094;-67
2022/07/09 07:24:42;;;;;;;2.05;1.48;;;;;;;25.75;39.16;100303.59;4317887;33;34960;-68
2022/07/09 07:27:10;;;;;;;2.00;1.40;;;;;;;25.55;37.91;100305.19;4321192;33;33411;-69
2022/07/09 07:29:38;;;;;;;2.90;1.60;;;;;;;25.98;36.58;100301.34;4317629;33;33941;-69
2022/07/09 07:32:07;;;;;;;2.40;1.42;;;;;;;26.38;35.90;100306.38;4317011;33;34114;-69
2022/07/09 07:34:35;;;;;;;2.05;1.58;;;;;;;25.49;37.49;100306.53;4317724;33;34292;-68
2022/07/09 07:37:02;;;;;;;2.12;1.30;;;;;;;25.62;37.95;100301.87;4317852;33;33847;-70
2022/07/09 07:39:30;;;;;;;1.50;1.20;;;;;;;25.89;37.18;100308.09;4317420;33;34782;-68
2022/07/09 07:41:58;;;;;;;2.17;1.45;;;;;;;25.48;38.42;100304.91;4318162;33;34310;-68
2022/07/09 07:44:25;;;;;;;3.25;1.85;;;;;;;24.53;39.63;100297.72;4317800;33;34397;-69
2022/07/09 07:46:53;;;;;;;1.75;1.50;;;;;;;25.21;39.35;100294.28;4318672;33;32976;-69
2022/07/09 07:49:20;;;;;;;3.35;1.77;;;;;;;24.92;40.52;100288.34;4332248;33;34577;-67
2022/07/09 07:51:49;;;;;;;2.53;1.50;;;;;;;25.29;38.76;100288.69;4332323;33;34992;-68
2022/07/09 07:54:17;;;;;;;1.42;1.25;;;;;;;25.67;39.14;100290.56;4332440;33;33627;-68
2022/07/09 07:56:45;;;;;;;1.80;1.55;;;;;;;24.33;40.18;100291.69;4332392;33;33806;-67
2022/07/09 07:59:12;;;;;;;3.22;1.85;;;;;;;24.48;41.32;100286.78;4332191;33;33447;-67
2022/07/09 08:01:40;;;;;;;2.17;1.50;;;;;;;24.92;40.03;100293.03;4324158;33;34557;-68
2022/07/09 08:04:07;;;;;;;1.70;1.50;;;;;;;24.72;40.54;100286.25;4317591;33;34305;-69
2022/07/09 08:06:38;;;;;;;2.30;1.30;;;;;;;24.82;40.16;100288.69;4316286;33;33714;-68
2022/07/09 08:09:05;;;;;;;2.45;1.90;;;;;;;24.73;39.98;100285.94;4317501;33;34858;-67
2022/07/09 08:11:33;;;;;;;3.90;1.70;;;;;;;24.63;40.09;100283.50;4317435;33;34188;-68
2022/07/09 08:14:01;;;;;;;2.28;1.20;;;;;;;25.23;38.81;100287.25;4315957;33;34207;-69
2022/07/09 08:16:29;;;;;;;1.60;1.40;;;;;;;25.23;39.42;100278.09;4315177;33;33260;-68
2022/07/09 08:18:56;;;;;;;3.12;1.58;;;;;;;25.20;39.61;100270.44;4317255;33;34986;-69
2022/07/09 08:21:24;;;;;;;1.83;1.40;;;;;;;25.63;38.18;100272.13;4317472;33;33802;-68
2022/07/09 08:23:51;;;;;;;2.40;1.33;;;;;;;25.82;37.05;100268.88;4315979;33;34982;-66
2022/07/09 08:26:21;;;;;;;1.95;1.40;;;;;;;25.89;37.14;100263.63;4317413;33;34460;-67
2022/07/09 08:28:49;;;;;;;1.50;1.40;;;;;;;25.78;36.47;100264.00;4317154;33;33958;-66
2022/07/09 08:31:17;;;;;;;1.80;1.20;;;;;;;25.14;37.30;100258.66;4316286;33;33835;-65
2022/07/09 08:33:45;;;;;;;2.37;1.30;;;;;;;24.98;38.67;100259.22;4316605;33;34872;-68
2022/07/09 08:36:13;;;;;;;1.73;1.30;;;;;;;24.86;38.27;100261.91;4317724;33;33718;-68
2022/07/09 08:38:40;;;;;;;1.35;1.25;;;;;;;25.21;37.98;100266.50;4317408;33;35002;-68
2022/07/09 08:41:08;;;;;;;4.45;1.90;;;;;;;24.77;38.56;100258.31;4315718;33;34100;-74
2022/07/09 08:43:38;;;;;;;2.05;1.37;;;;;;;24.97;37.28;100256.78;4322550;33;33997;-69
2022/07/09 08:46:05;;;;;;;1.45;1.33;;;;;;;25.51;36.67;100256.22;4322708;33;34150;-68
2022/07/09 08:48:35;;;;;;;1.83;1.50;;;;;;;25.33;37.31;100249.94;4316271;33;34807;-69
2022/07/09 08:51:04;;;;;;;1.50;1.20;;;;;;;24.45;37.65;100254.97;4316378;33;34248;-72
2022/07/09 08:53:31;;;;;;;2.30;1.27;;;;;;;25.21;37.04;100252.62;4317239;33;34768;-70
2022/07/09 08:55:59;;;;;;;1.98;1.12;;;;;;;25.28;36.72;100248.16;4317259;33;33664;-70
2022/07/09 08:58:26;;;;;;;1.58;1.00;;;;;;;25.72;35.76;100253.41;4314484;33;34099;-70
2022/07/09 09:00:55;;;;;;;1.12;1.00;;;;;;;25.87;35.17;100255.59;4316914;33;34261;-70
2022/07/09 09:03:24;;;;;;;1.30;1.05;;;;;;;26.10;33.52;100253.31;4318205;33;34338;-70
2022/07/09 09:06:03;;;;;;;1.40;1.20;;;;;;;25.62;33.85;100251.88;4315939;33;33612;-70
2022/07/09 09:08:41;;;;;;;2.10;1.27;;;;;;;26.02;33.33;100248.62;4318073;33;34101;-70
2022/07/09 09:11:28;;;;;;;1.52;1.20;;;;;;;25.69;34.21;100254.91;4317101;33;34988;-71
2022/07/09 09:13:56;;;;;;;1.70;1.20;;;;;;;25.73;33.97;100241.97;4318449;33;34192;-69
2022/07/09 09:16:24;;;;;;;1.48;1.15;;;;;;;25.84;33.63;100249.91;4316444;33;33825;-71
2022/07/09 09:18:52;;;;;;;1.92;1.20;;;;;;;25.71;33.97;100243.47;4317238;33;33965;-70
2022/07/09 09:21:22;;;;;;;1.10;1.00;;;;;;;25.51;33.89;100242.31;4317984;33;34973;-70
2022/07/09 09:23:59;;;;;;;2.15;1.10;;;;;;;25.25;33.27;100234.97;4317993;33;35000;-68
2022/07/09 09:26:27;;;;;;;1.17;1.08;;;;;;;24.95;33.83;100234.09;4318154;33;33638;-68
2022/07/09 09:29:01;;;;;;;1.77;1.12;;;;;;;25.06;34.12;100237.31;4316849;33;34705;-69
2022/07/09 09:31:32;;;;;;;1.33;1.10;;;;;;;24.78;33.44;100235.00;4317597;33;34208;-71
2022/07/09 09:34:06;;;;;;;0.90;0.90;;;;;;;25.17;35.09;100231.03;4318408;33;34184;-71
2022/07/09 09:36:35;;;;;;;2.20;1.33;;;;;;;25.60;34.53;100225.59;4318267;33;33566;-69
2022/07/09 09:39:13;;;;;;;2.40;1.40;;;;;;;25.47;33.88;100227.47;4318443;33;33985;-71
2022/07/09 09:41:43;;;;;;;1.90;1.27;;;;;;;25.52;33.66;100219.72;4318156;33;34229;-71
2022/07/09 09:44:16;;;;;;;1.42;1.08;;;;;;;25.27;34.26;100207.66;4317974;33;34958;-71
2022/07/09 09:46:44;;;;;;;3.10;1.40;;;;;;;25.65;35.30;100214.25;4318319;33;33571;-71
2022/07/09 09:49:14;;;;;;;2.90;1.50;;;;;;;26.22;31.94;100218.34;4318197;33;34652;-70
2022/07/09 09:51:48;;;;;;;1.48;1.08;;;;;;;26.42;31.41;100206.34;4318125;33;35024;-70
2022/07/09 09:54:17;;;;;;;1.33;1.00;;;;;;;26.10;32.62;100213.56;4316726;33;34392;-71
2022/07/09 09:56:45;;;;;;;1.90;1.02;;;;;;;26.56;32.30;100203.25;4317179;33;34518;-72
2022/07/09 09:59:12;;;;;;;1.35;1.17;;;;;;;26.28;32.28;100201.09;4316798;33;34891;-71
2022/07/09 10:01:41;;;;;;;1.30;1.20;;;;;;;26.73;31.73;100200.25;4316473;33;34947;-69
2022/07/09 10:04:10;;;;;;;1.05;0.90;;;;;;;26.63;33.54;100202.69;4316748;33;34990;-72
2022/07/09 10:06:37;;;;;;;1.23;1.10;;;;;;;26.47;30.91;100199.75;4317868;33;33468;-71
2022/07/09 10:09:09;;;;;;;1.75;1.20;;;;;;;26.70;31.45;100197.38;4316681;33;33989;-71
2022/07/09 10:11:39;;;;;;;1.20;0.98;;;;;;;26.77;31.07;100190.06;4317236;33;34084;-70
2022/07/09 10:14:07;;;;;;;1.25;1.00;;;;;;;27.19;30.11;100203.75;4306447;33;33089;-72
2022/07/09 10:16:38;;;;;;;2.22;1.12;;;;;;;26.56;30.60;100197.69;4318419;33;33634;-70
2022/07/09 10:19:07;;;;;;;1.37;1.15;;;;;;;26.56;30.72;100195.72;4318655;33;34076;-70
2022/07/09 10:21:39;;;;;;;1.20;1.10;;;;;;;26.84;29.75;100188.69;4319724;33;34013;-71
2022/07/09 10:24:08;;;;;;;0.80;0.80;;;;;;;25.38;31.72;100189.44;4318486;33;35003;-69
2022/07/09 10:26:38;;;;;;;1.12;0.90;;;;;;;26.08;32.30;100188.06;4319767;33;33724;-70
2022/07/09 10:29:26;;;;;;;1.20;1.10;;;;;;;26.11;31.63;100184.59;4319474;33;33984;-69
2022/07/09 10:31:55;;;;;;;0.80;0.80;;;;;;;25.45;32.38;100193.66;4318337;33;34963;-70
2022/07/09 10:34:32;;;;;;;1.12;1.02;;;;;;;24.78;32.63;100168.41;4319441;33;34153;-69
2022/07/09 10:37:00;;;;;;;2.33;1.37;;;;;;;25.28;32.98;100178.72;4319700;33;34523;-71
2022/07/09 10:39:29;;;;;;;1.40;0.95;;;;;;;26.02;31.83;100173.56;4318317;33;34675;-70
2022/07/09 10:42:16;;;;;;;0.82;0.82;;;;;;;26.04;31.48;100159.31;4319904;33;34229;-73
2022/07/09 10:44:45;;;;;;;1.05;0.93;;;;;;;25.94;33.17;100160.53;4318301;33;34040;-71
2022/07/09 10:47:13;;;;;;;1.92;1.10;;;;;;;26.34;30.65;100166.34;4318212;33;34532;-70
2022/07/09 10:49:40;;;;;;;1.10;1.00;;;;;;;26.09;30.27;100167.44;4319443;33;34043;-71
2022/07/09 10:52:08;;;;;;;1.30;1.02;;;;;;;25.77;30.90;100162.31;4319485;33;34027;-71
2022/07/09 10:54:46;;;;;;;1.70;1.10;;;;;;;26.06;30.94;100168.12;4319664;33;34198;-70
2022/07/09 10:57:14;;;;;;;1.73;0.82;;;;;;;25.73;30.56;100155.00;4319660;33;33709;-70
2022/07/09 10:59:46;;;;;;;1.65;1.08;;;;;;;26.53;30.99;100156.63;4317973;33;32717;-69
2022/07/09 11:02:18;;;;;;;1.45;1.02;;;;;;;26.35;30.56;100156.00;4306064;33;34195;-69
2022/07/09 11:04:51;;;;;;;1.35;1.00;;;;;;;26.94;29.71;100160.38;4318907;33;34733;-70
2022/07/09 11:07:25;;;;;;;1.20;1.10;;;;;;;27.04;30.24;100154.34;4319309;33;34552;-70
2022/07/09 11:09:53;;;;;;;1.05;0.95;;;;;;;27.26;29.41;100150.25;4318339;33;34881;-71
2022/07/09 11:12:21;;;;;;;1.15;1.05;;;;;;;27.10;30.33;100155.69;4319593;33;34232;-71
2022/07/09 11:14:50;;;;;;;1.02;0.93;;;;;;;27.44;28.98;100161.94;4318031;33;34113;-70
2022/07/09 11:17:19;;;;;;;1.98;1.12;;;;;;;26.77;29.69;100158.63;4319176;33;33699;-69
2022/07/09 11:19:48;;;;;;;1.55;1.00;;;;;;;26.46;29.17;100150.81;4319252;33;33600;-71
2022/07/09 11:22:16;;;;;;;1.73;1.10;;;;;;;27.31;28.08;100149.19;4318147;33;34183;-71
2022/07/09 11:24:44;;;;;;;0.80;0.80;;;;;;;27.38;28.36;100149.41;4318807;33;34240;-70
2022/07/09 11:27:13;;;;;;;2.33;1.20;;;;;;;27.35;28.74;100164.84;4319420;33;32874;-71
2022/07/09 11:29:46;;;;;;;2.62;1.30;;;;;;;26.68;29.05;100146.81;4319043;33;34046;-69